Time;durP1;ratioP1;P1;durP2;ratioP2;P2;SDS_P1;SDS_P2;PMS_P1;PMS_P2;Temp;Humidity;BMP_temperature;BMP_pressure;BME280_temperature;BME280_humidity;BME280_pressure;Samples;Min_cycle;Max_cycle;Signal;HPM_P1;HPM_P2
2021/07/18 00:16:58;;;;;;;9.07;5.50;;;;;;;24.66;66.75;99151.09;1208569;22;21434;-74
2021/07/18 00:25:09;;;;;;;12.57;5.88;;;;;;;24.37;68.26;99148.75;1211467;22;21486;-75
2021/07/18 01:00:39;;;;;;;11.13;6.53;;;;;;;23.47;72.08;99136.81;1134545;22;20163;-69
2021/07/18 01:03:05;;;;;;;12.05;6.15;;;;;;;23.52;71.82;99132.81;2487009;22;20028;-67
2021/07/18 01:19:53;;;;;;;8.32;6.50;;;;;;;23.81;71.20;99136.03;1210280;22;21574;-76
2021/07/18 01:54:55;;;;;;;14.38;8.63;;;;;;;22.55;76.71;99153.16;1211798;22;21579;-74
2021/07/18 02:02:45;;;;;;;11.98;7.97;;;;;;;22.75;74.85;99136.66;3077768;22;20029;-67
2021/07/18 02:13:24;;;;;;;11.10;7.60;;;;;;;23.04;73.61;99134.78;1212314;22;21559;-75
2021/07/18 03:05:14;;;;;;;16.17;7.53;;;;;;;22.83;75.35;99141.94;1211897;22;21588;-66
2021/07/18 03:32:42;;;;;;;11.75;6.80;;;;;;;23.08;75.72;99143.91;1214936;22;21900;-74
2021/07/18 03:41:13;;;;;;;15.82;7.72;;;;;;;23.07;74.93;99144.88;1214629;22;20290;-69
2021/07/18 03:57:10;;;;;;;14.20;6.78;;;;;;;23.42;72.55;99146.78;1212556;22;21433;-73
2021/07/18 04:07:49;;;;;;;10.32;6.05;;;;;;;24.17;70.14;99147.28;1287448;22;21571;-74
2021/07/18 04:30:34;;;;;;;23.23;13.30;;;;;;;23.94;73.96;99164.25;1280694;22;21463;-77
2021/07/18 05:00:23;;;;;;;16.20;8.00;;;;;;;25.38;68.55;99174.94;1212549;22;21610;-75
2021/07/18 05:05:43;;;;;;;12.07;7.88;;;;;;;25.82;65.46;99175.59;1213669;22;21596;-74
2021/07/18 05:16:43;;;;;;;17.65;8.02;;;;;;;26.31;64.21;99185.16;3742853;22;21006;-74
2021/07/18 05:43:56;;;;;;;13.20;6.78;;;;;;;27.82;58.86;99193.84;1320472;22;20185;-68
2021/07/18 05:46:46;;;;;;;24.65;10.98;;;;;;;27.73;58.71;99194.88;1212978;22;21463;-77
2021/07/18 06:03:07;;;;;;;14.70;6.80;;;;;;;28.59;55.00;99200.72;1806133;22;20179;-72
2021/07/18 06:08:02;;;;;;;13.93;7.00;;;;;;;29.21;53.77;99194.25;1266067;22;20264;-67
2021/07/18 06:15:55;;;;;;;13.85;6.18;;;;;;;29.79;52.14;99182.91;1140519;22;20193;-68
2021/07/18 06:27:07;;;;;;;8.95;5.70;;;;;;;29.17;55.03;99184.31;1470951;22;20181;-77
2021/07/18 06:35:16;;;;;;;10.27;6.00;;;;;;;30.10;55.06;99175.56;1357637;22;20181;-71
2021/07/18 06:38:07;;;;;;;15.23;6.90;;;;;;;29.76;55.18;99175.41;1357552;22;21484;-72
2021/07/18 06:54:04;;;;;;;8.70;5.78;;;;;;;31.03;52.68;99159.59;1429153;22;20210;-75
2021/07/18 07:26:26;;;;;;;10.02;5.07;;;;;;;32.00;49.72;99155.75;1288903;22;20269;-68
2021/07/18 07:40:13;;;;;;;12.77;5.15;;;;;;;31.80;49.47;99142.53;1427125;22;20167;-66
2021/07/18 07:42:46;;;;;;;8.93;5.72;;;;;;;32.02;49.19;99141.41;2122786;22;21508;-77
2021/07/18 08:08:56;;;;;;;16.80;6.38;;;;;;;32.16;50.21;99129.06;1613719;22;21519;-77
2021/07/18 08:19:05;;;;;;;10.63;6.43;;;;;;;33.23;47.02;99130.38;3070135;22;20242;-78
2021/07/18 08:39:29;;;;;;;10.00;5.93;;;;;;;34.50;43.93;99121.31;3270307;22;20039;-78
2021/07/18 09:38:17;;;;;;;8.20;5.60;;;;;;;35.21;38.45;99067.88;1544536;22;20214;-67
2021/07/18 09:40:54;;;;;;;8.95;5.35;;;;;;;35.21;37.52;99059.94;2976892;22;21362;-70
2021/07/18 09:51:10;;;;;;;11.65;6.20;;;;;;;35.49;38.16;99060.19;3493340;22;21168;-74
2021/07/18 09:58:56;;;;;;;13.73;5.80;;;;;;;35.85;36.96;99083.06;3265537;23;20013;-79
2021/07/18 10:14:50;;;;;;;11.88;5.88;;;;;;;35.92;36.62;99052.00;2660665;22;21192;-74
2021/07/18 10:47:53;;;;;;;8.38;5.85;;;;;;;36.06;36.13;99054.25;1506519;22;20216;-69
2021/07/18 10:53:29;;;;;;;7.50;5.60;;;;;;;35.83;35.93;99048.09;2444471;22;20258;-67
2021/07/18 11:54:38;;;;;;;8.90;6.03;;;;;;;36.39;35.45;99006.81;1140020;22;20188;-68
2021/07/18 12:22:35;;;;;;;8.80;5.10;;;;;;;36.51;32.18;99026.16;1139593;22;20268;-68
2021/07/18 12:39:14;;;;;;;10.10;4.83;;;;;;;37.26;31.14;99026.06;2826263;22;20035;-70
2021/07/18 12:50:34;;;;;;;5.00;4.50;;;;;;;36.36;31.59;99015.19;1282811;22;20287;-76
2021/07/18 13:01:01;;;;;;;6.40;3.78;;;;;;;35.15;31.17;99021.16;1283445;22;20241;-72
2021/07/18 13:11:03;;;;;;;6.88;3.78;;;;;;;35.34;30.40;99018.25;1803981;22;20373;-71
2021/07/18 13:13:35;;;;;;;5.95;3.72;;;;;;;35.28;30.33;99021.78;1142601;22;20201;-67
2021/07/18 13:16:32;;;;;;;7.47;3.78;;;;;;;35.34;29.97;99020.91;1214324;22;20016;-73
2021/07/18 13:19:12;;;;;;;10.23;3.83;;;;;;;35.21;30.53;99012.34;3528493;22;20029;-65
2021/07/18 13:29:57;;;;;;;7.75;4.80;;;;;;;35.25;30.74;99024.91;3490077;23;20801;-68
2021/07/18 13:32:25;;;;;;;7.72;4.60;;;;;;;35.65;30.43;99014.56;3633766;22;20047;-68
2021/07/18 13:49:15;;;;;;;6.05;3.58;;;;;;;35.08;29.62;99028.41;2673762;23;21449;-68
2021/07/18 13:54:09;;;;;;;5.45;4.18;;;;;;;35.29;30.16;99034.00;2489992;22;20017;-68
2021/07/18 14:05:25;;;;;;;5.35;3.70;;;;;;;35.23;30.23;99029.59;1281908;22;20246;-69
2021/07/18 14:13:48;;;;;;;7.68;3.97;;;;;;;34.85;29.17;99029.88;3623397;23;20055;-71
2021/07/18 14:16:13;;;;;;;7.57;3.70;;;;;;;34.86;29.75;99030.69;3578909;40;20117;-71
2021/07/18 14:18:40;;;;;;;8.35;3.88;;;;;;;35.30;29.87;99022.38;3579778;40;20069;-73
2021/07/18 14:21:13;;;;;;;5.38;4.05;;;;;;;34.61;30.09;99019.38;3568120;40;20034;-72
2021/07/18 14:23:39;;;;;;;6.50;3.75;;;;;;;34.89;30.16;99030.22;3570322;40;20045;-72
2021/07/18 14:31:33;;;;;;;7.60;3.70;;;;;;;34.40;30.81;99033.81;3661713;23;20444;-79
2021/07/18 14:36:30;;;;;;;11.18;4.50;;;;;;;34.82;31.99;99027.66;3609974;39;20043;-75
2021/07/18 14:47:18;;;;;;;8.25;4.75;;;;;;;35.21;31.79;99023.75;3665230;22;20124;-71
2021/07/18 14:50:09;;;;;;;8.47;4.70;;;;;;;34.74;33.78;99025.34;3660100;22;20033;-66
2021/07/18 14:52:48;;;;;;;;;;;;;;;35.16;32.89;99022.81;3313223;22;20036;-68
2021/07/18 14:55:16;;;;;;;10.63;5.00;;;;;;;34.44;34.04;99032.34;3670738;23;19932;-68
2021/07/18 14:57:45;;;;;;;7.70;4.47;;;;;;;34.28;34.42;99027.63;3679360;22;20033;-70
2021/07/18 15:00:37;;;;;;;6.90;4.60;;;;;;;33.93;34.36;99032.56;3674428;22;20029;-69
2021/07/18 15:05:33;;;;;;;9.93;4.75;;;;;;;34.17;34.79;99032.81;3599911;40;19948;-70
2021/07/18 15:10:31;;;;;;;7.65;4.82;;;;;;;33.90;36.78;99040.13;3730768;22;20625;31
2021/07/18 15:13:22;;;;;;;8.70;5.15;;;;;;;33.78;37.89;99042.66;3590196;22;20635;-74
2021/07/18 15:16:02;;;;;;;9.55;5.50;;;;;;;33.43;38.99;99033.53;3595047;22;20048;-73
2021/07/18 15:18:32;;;;;;;8.80;5.30;;;;;;;33.30;38.78;99025.69;3730972;22;20077;-81
2021/07/18 15:21:11;;;;;;;12.48;5.30;;;;;;;32.91;40.10;99002.16;3273232;22;20077;-69
2021/07/18 15:26:41;;;;;;;10.10;5.72;;;;;;;32.91;41.39;99013.50;3636596;22;20048;-71
2021/07/18 15:35:11;;;;;;;11.50;6.43;;;;;;;33.08;43.15;99027.03;3729019;22;20892;-69
2021/07/18 15:37:38;;;;;;;11.02;5.97;;;;;;;32.53;45.20;99015.25;3590363;40;20035;-71
2021/07/18 15:42:58;;;;;;;9.93;6.15;;;;;;;32.61;46.85;99016.84;3517599;22;20667;-71
2021/07/18 15:45:25;;;;;;;12.65;6.35;;;;;;;32.64;47.46;99025.16;3599082;40;20025;-71
2021/07/18 15:47:50;;;;;;;16.10;6.53;;;;;;;32.52;47.67;99023.38;3600100;39;20119;-72
2021/07/18 15:50:17;;;;;;;15.05;7.07;;;;;;;32.55;47.67;99025.56;3599671;40;20033;-71
2021/07/18 15:52:43;;;;;;;31.80;7.57;;;;;;;32.36;48.94;99006.16;3599449;40;20044;-72
2021/07/18 15:57:41;;;;;;;19.77;6.60;;;;;;;32.55;48.32;99015.03;3597895;40;20447;-73
2021/07/18 16:00:11;;;;;;;14.63;5.97;;;;;;;32.39;48.77;99021.53;3599925;40;20028;-71
2021/07/18 16:02:39;;;;;;;11.60;5.65;;;;;;;32.16;48.34;99029.88;3599352;40;20032;-71
2021/07/18 16:05:09;;;;;;;14.07;6.15;;;;;;;32.10;47.58;99029.88;3590027;40;20051;-71
2021/07/18 16:07:36;;;;;;;17.17;6.00;;;;;;;32.47;47.01;99025.81;3599017;40;20032;-71
2021/07/18 16:10:08;;;;;;;9.20;5.90;;;;;;;32.01;47.54;99028.47;3598198;40;20100;-71
2021/07/18 16:12:34;;;;;;;15.45;5.88;;;;;;;31.89;47.44;99006.41;3589057;40;20033;-71
2021/07/18 16:15:04;;;;;;;10.52;5.53;;;;;;;31.86;46.55;99031.28;3590681;40;20039;-73
2021/07/18 16:20:00;;;;;;;20.55;5.75;;;;;;;31.67;47.01;99026.81;3599305;40;20049;-69
2021/07/18 16:22:31;;;;;;;15.25;5.93;;;;;;;31.67;47.80;99034.72;3600093;40;20044;-67
2021/07/18 16:24:57;;;;;;;11.43;5.85;;;;;;;31.68;47.53;99036.31;3598513;40;20114;-69
2021/07/18 16:27:25;;;;;;;15.75;6.15;;;;;;;31.89;47.41;99033.47;3597491;40;20048;-69
2021/07/18 16:29:52;;;;;;;12.27;6.05;;;;;;;31.79;47.83;99025.22;3598036;40;20033;-70
2021/07/18 16:32:24;;;;;;;10.90;5.82;;;;;;;31.68;48.11;99025.78;3598325;40;20311;-70
2021/07/18 16:34:50;;;;;;;56.20;8.82;;;;;;;31.56;48.76;99030.03;3600136;39;20024;-70
2021/07/18 16:37:19;;;;;;;14.02;6.18;;;;;;;31.32;48.24;99039.25;3599648;40;20061;-71
2021/07/18 16:39:45;;;;;;;17.42;6.70;;;;;;;31.40;48.07;99043.53;3600292;40;20036;-72
2021/07/18 16:42:10;;;;;;;10.35;7.00;;;;;;;31.21;47.90;99045.09;3601137;39;20059;-70
2021/07/18 16:44:40;;;;;;;11.77;6.00;;;;;;;31.26;48.81;99047.09;3596913;40;20025;-70
2021/07/18 16:47:05;;;;;;;13.05;5.55;;;;;;;31.09;49.49;99056.34;3599133;40;20039;-70
2021/07/18 16:49:36;;;;;;;14.20;6.22;;;;;;;31.11;49.89;99059.59;3599786;40;20032;-72
2021/07/18 16:52:02;;;;;;;19.92;6.95;;;;;;;30.86;50.75;99061.13;3600382;40;20048;-73
2021/07/18 16:54:29;;;;;;;13.15;6.43;;;;;;;30.83;51.16;99078.03;3600297;40;20033;-75
2021/07/18 16:56:58;;;;;;;14.95;6.45;;;;;;;30.82;51.93;99067.72;3599642;40;20383;-73
2021/07/18 16:59:26;;;;;;;11.98;6.10;;;;;;;30.60;51.59;99073.03;3608354;40;20357;-71
2021/07/18 17:01:52;;;;;;;11.90;6.63;;;;;;;30.42;51.52;99075.38;3598898;40;20690;-70
2021/07/18 17:04:17;;;;;;;11.63;6.00;;;;;;;30.26;51.11;99075.63;3598303;39;20410;-72
2021/07/18 17:06:45;;;;;;;8.77;6.35;;;;;;;30.10;50.59;99068.03;3598540;40;20036;-74
2021/07/18 17:09:11;;;;;;;10.60;6.25;;;;;;;30.09;50.86;99068.22;3598793;40;20037;-70
2021/07/18 17:11:37;;;;;;;11.48;7.25;;;;;;;30.09;52.00;99076.09;3599040;40;20039;-70
2021/07/18 17:14:04;;;;;;;12.10;7.10;;;;;;;29.82;54.05;99080.28;3598740;40;20036;-71
2021/07/18 17:16:29;;;;;;;18.27;7.65;;;;;;;29.82;55.67;99078.47;3598876;40;20072;-71
2021/07/18 17:18:55;;;;;;;11.15;7.43;;;;;;;29.82;56.42;99077.66;3594346;40;20060;-69
2021/07/18 17:21:21;;;;;;;17.20;8.02;;;;;;;29.71;56.82;99078.97;3593679;40;20565;-70
2021/07/18 17:23:47;;;;;;;18.58;8.35;;;;;;;29.68;57.78;99081.13;3596338;40;20036;-70
2021/07/18 17:26:13;;;;;;;12.30;7.70;;;;;;;29.55;57.65;99084.44;3594097;40;20093;-71
2021/07/18 17:28:40;;;;;;;11.32;8.07;;;;;;;29.31;59.24;99078.69;3596985;40;20036;-70
2021/07/18 17:31:06;;;;;;;14.15;8.48;;;;;;;29.32;60.23;99091.59;3588536;40;20036;-71
2021/07/18 17:33:32;;;;;;;13.77;8.20;;;;;;;29.22;60.85;99096.31;3598480;40;20032;-71
2021/07/18 17:35:58;;;;;;;14.43;8.52;;;;;;;29.28;60.92;99097.44;3588308;40;20044;-70
2021/07/18 17:38:25;;;;;;;13.93;8.93;;;;;;;29.12;61.17;99111.47;3595978;40;20036;-69
2021/07/18 17:40:54;;;;;;;11.55;9.05;;;;;;;29.10;60.77;99097.75;3593310;40;20393;-70
2021/07/18 17:43:20;;;;;;;13.82;9.15;;;;;;;29.00;60.59;99099.84;3584127;40;20048;-71
2021/07/18 17:45:46;;;;;;;17.92;10.07;;;;;;;28.96;60.96;99106.47;3592012;40;20032;-70
2021/07/18 17:48:12;;;;;;;18.50;10.65;;;;;;;28.90;60.96;99107.19;3593316;40;20384;-70
2021/07/18 17:53:08;;;;;;;12.27;10.55;;;;;;;28.89;60.37;99106.34;3586411;40;20025;-70
2021/07/18 17:55:34;;;;;;;15.23;10.80;;;;;;;28.73;60.47;99105.72;3590236;40;20033;-70
2021/07/18 18:05:55;;;;;;;14.65;11.98;;;;;;;28.79;61.92;99116.28;3573485;40;20134;-70
2021/07/18 18:08:20;;;;;;;13.18;11.75;;;;;;;28.63;62.38;99121.69;3573462;40;20061;-70
2021/07/18 18:10:46;;;;;;;16.02;11.57;;;;;;;28.72;62.99;99120.59;3568001;40;20058;-72
2021/07/18 18:13:13;;;;;;;15.73;12.55;;;;;;;28.67;63.19;99133.41;3567501;40;20056;-72
2021/07/18 18:15:39;;;;;;;14.07;11.55;;;;;;;28.32;65.31;99135.84;3565752;40;20056;-70
2021/07/18 18:18:07;;;;;;;14.15;11.95;;;;;;;28.26;66.50;99137.38;3578132;40;20070;-70
2021/07/18 18:20:33;;;;;;;14.13;12.32;;;;;;;28.07;67.63;99146.47;3575429;40;20095;-71
2021/07/18 18:23:05;;;;;;;17.77;12.55;;;;;;;28.31;67.10;99150.72;3575822;40;20045;-70
2021/07/18 18:25:32;;;;;;;18.98;12.55;;;;;;;28.12;67.60;99156.44;3577569;40;20049;-73
2021/07/18 18:30:27;;;;;;;15.85;12.98;;;;;;;27.94;68.59;99171.53;3585534;40;20045;-68
2021/07/18 18:32:57;;;;;;;14.23;12.48;;;;;;;27.81;69.35;99181.75;3589703;40;20033;-69
2021/07/18 18:35:23;;;;;;;19.67;12.82;;;;;;;27.80;69.40;99182.72;3576828;40;20017;-70
2021/07/18 18:37:52;;;;;;;16.08;12.48;;;;;;;27.78;69.84;99193.38;3579971;40;20040;-70
2021/07/18 18:40:22;;;;;;;16.20;13.10;;;;;;;28.07;68.77;99197.94;3575719;40;20061;-68
2021/07/18 18:42:53;;;;;;;17.27;13.30;;;;;;;28.15;68.83;99200.50;3589209;40;20041;-70
2021/07/18 18:45:20;;;;;;;19.10;13.15;;;;;;;27.87;70.11;99202.78;3589497;40;20037;-68
2021/07/18 18:50:18;;;;;;;19.20;13.68;;;;;;;27.57;71.26;99224.50;3577554;40;20523;-70
2021/07/18 18:52:45;;;;;;;16.77;13.95;;;;;;;27.63;71.20;99228.22;3581645;40;20045;-69
2021/07/18 18:55:12;;;;;;;18.90;13.75;;;;;;;27.73;70.29;99234.88;3582198;40;20121;-66
2021/07/18 18:57:37;;;;;;;21.90;13.75;;;;;;;27.85;69.43;99243.94;3580059;40;20049;-71
2021/07/18 19:00:07;;;;;;;16.80;14.07;;;;;;;27.51;70.52;99247.88;3578354;40;20050;-70
2021/07/18 19:02:34;;;;;;;17.35;14.18;;;;;;;27.48;70.75;99250.78;3581292;40;20116;-71
2021/07/18 19:05:00;;;;;;;17.13;13.70;;;;;;;27.53;69.88;99253.75;3581271;40;20040;-69
2021/07/18 19:07:27;;;;;;;17.27;13.20;;;;;;;27.50;69.20;99246.22;3582396;40;20025;-71
2021/07/18 19:14:58;;;;;;;17.75;12.88;;;;;;;27.68;67.29;99255.47;1417471;23;20194;-68
2021/07/18 19:17:27;;;;;;;16.73;12.32;;;;;;;27.65;67.01;99255.81;3989437;22;20494;-74
2021/07/18 19:22:46;;;;;;;13.85;12.23;;;;;;;27.79;66.05;99252.47;3608818;23;20032;-72
2021/07/18 19:25:15;;;;;;;14.32;11.90;;;;;;;27.72;64.21;99256.75;3717313;22;20049;31
2021/07/18 19:40:08;;;;;;;16.88;12.70;;;;;;;27.34;67.44;99266.19;3591967;39;20057;-72
2021/07/18 19:42:34;;;;;;;14.73;12.70;;;;;;;27.54;66.76;99253.56;3592104;40;20033;-72
2021/07/18 19:45:06;;;;;;;19.00;12.57;;;;;;;27.71;65.75;99249.91;3582928;40;20490;-73
2021/07/18 19:47:32;;;;;;;15.07;12.65;;;;;;;27.24;67.90;99264.69;3592082;40;20098;-70
2021/07/18 19:50:01;;;;;;;16.30;12.82;;;;;;;27.26;67.67;99266.19;3582387;40;20038;-72
2021/07/18 19:52:28;;;;;;;22.30;13.20;;;;;;;26.76;69.40;99268.16;3581659;40;20601;-71
2021/07/18 19:54:54;;;;;;;15.77;13.70;;;;;;;27.23;68.33;99273.53;3591917;40;20025;-71
2021/07/18 19:57:19;;;;;;;17.20;13.50;;;;;;;27.12;68.64;99266.03;3592200;40;20501;-72
2021/07/18 19:59:46;;;;;;;17.38;12.80;;;;;;;27.28;68.19;99273.84;3592519;40;20036;-72
2021/07/18 20:02:12;;;;;;;19.67;13.18;;;;;;;26.88;69.54;99271.28;3592479;39;20053;-72
2021/07/18 20:04:38;;;;;;;16.95;13.40;;;;;;;26.75;70.56;99277.00;3592283;40;20405;-71
2021/07/18 20:07:05;;;;;;;15.38;12.77;;;;;;;26.85;70.08;99274.22;3591834;40;20044;-71
2021/07/18 20:09:30;;;;;;;20.42;13.40;;;;;;;26.85;70.42;99276.81;3591337;40;20028;-74
2021/07/18 20:11:58;;;;;;;18.10;12.77;;;;;;;26.93;70.47;99269.81;3592064;40;20025;-71
2021/07/18 20:14:26;;;;;;;16.83;12.30;;;;;;;26.68;71.28;99273.38;3591667;40;20415;-74
2021/07/18 20:16:51;;;;;;;16.05;12.43;;;;;;;26.87;71.02;99278.28;3591606;40;20288;-68
2021/07/18 20:19:17;;;;;;;17.95;12.02;;;;;;;26.63;72.16;99278.25;3591263;40;20087;-71
2021/07/18 20:21:44;;;;;;;15.00;12.25;;;;;;;26.88;71.38;99287.75;3582620;40;20045;-70
2021/07/18 20:24:09;;;;;;;15.80;11.73;;;;;;;26.83;71.53;99289.22;3591927;40;20021;-71
2021/07/18 20:26:35;;;;;;;15.48;11.70;;;;;;;26.78;71.77;99292.31;3592184;40;20083;-71
2021/07/18 20:29:00;;;;;;;16.00;11.63;;;;;;;26.86;71.56;99286.28;3591537;40;20031;-71
2021/07/18 20:31:26;;;;;;;16.23;12.02;;;;;;;26.89;71.54;99278.94;3582565;40;20029;-72
2021/07/18 20:33:56;;;;;;;15.95;11.55;;;;;;;26.80;71.97;99289.56;3591959;40;20049;-72
2021/07/18 20:36:24;;;;;;;13.90;11.45;;;;;;;26.80;72.18;99281.72;3591756;40;20386;-71
2021/07/18 20:39:05;;;;;;;14.55;11.73;;;;;;;26.55;73.23;99283.47;3591188;40;20044;-73
2021/07/18 20:41:32;;;;;;;17.13;11.48;;;;;;;26.95;71.74;99282.69;3584113;40;20091;-70
2021/07/18 20:44:04;;;;;;;16.55;11.75;;;;;;;26.62;73.06;99280.03;3591820;39;20422;-71
2021/07/18 20:46:31;;;;;;;15.35;11.93;;;;;;;26.42;73.54;99275.31;3591622;40;20559;-72
2021/07/18 20:48:56;;;;;;;16.58;11.35;;;;;;;26.76;72.65;99277.81;3591062;40;20033;-72
2021/07/18 20:51:22;;;;;;;16.63;11.98;;;;;;;26.80;72.51;99272.09;3591234;40;20091;-72
2021/07/18 20:53:48;;;;;;;15.77;11.50;;;;;;;26.73;72.63;99271.13;3591295;40;20025;-71
2021/07/18 20:56:13;;;;;;;16.63;11.60;;;;;;;26.48;73.79;99274.66;3582187;40;20033;-72
2021/07/18 20:58:41;;;;;;;14.98;11.27;;;;;;;26.50;73.90;99270.88;3591184;40;20029;-71
2021/07/18 21:01:07;;;;;;;12.95;11.65;;;;;;;26.67;73.12;99274.34;3581703;40;20036;-70
2021/07/18 21:03:32;;;;;;;15.30;11.25;;;;;;;26.78;73.04;99276.66;3591055;40;20041;-71
2021/07/18 21:05:58;;;;;;;14.02;11.65;;;;;;;26.66;73.37;99282.34;3591237;40;20039;-71
2021/07/18 21:08:23;;;;;;;15.15;11.45;;;;;;;26.48;73.88;99274.66;3590773;40;20041;-71
2021/07/18 21:10:50;;;;;;;15.82;11.90;;;;;;;26.41;74.18;99273.66;3590793;40;20325;-70
2021/07/18 21:13:16;;;;;;;17.55;11.35;;;;;;;26.73;73.20;99278.94;3591155;40;20033;-70
2021/07/18 21:15:43;;;;;;;16.73;11.57;;;;;;;26.67;73.15;99290.00;3590483;40;20095;-71
2021/07/18 21:18:10;;;;;;;17.63;11.68;;;;;;;26.82;72.81;99287.59;3591194;40;20320;-70
2021/07/18 21:20:35;;;;;;;18.65;11.65;;;;;;;26.56;73.13;99282.50;3582137;40;20729;-70
2021/07/18 21:23:02;;;;;;;16.38;12.40;;;;;;;26.50;73.86;99278.72;3590496;40;20029;-71
2021/07/18 21:25:27;;;;;;;16.73;11.90;;;;;;;26.69;72.42;99282.00;3569104;40;20049;-72
2021/07/18 21:27:55;;;;;;;15.38;12.57;;;;;;;26.46;73.57;99276.63;3569446;40;20034;-72
2021/07/18 21:30:23;;;;;;;17.45;12.90;;;;;;;26.42;74.11;99270.88;3569394;40;20104;-71
2021/07/18 21:32:50;;;;;;;15.35;12.48;;;;;;;26.44;72.47;99266.31;3569197;40;20034;-70
2021/07/18 21:35:17;;;;;;;16.52;12.70;;;;;;;26.38;72.48;99269.59;3570179;40;20030;-71
2021/07/18 21:37:44;;;;;;;16.58;12.50;;;;;;;26.37;72.64;99264.50;3570445;40;20034;-71
2021/07/18 21:46:12;;;;;;;15.27;12.60;;;;;;;26.13;73.31;99262.69;3589999;40;20048;-71
2021/07/18 21:48:37;;;;;;;16.02;12.73;;;;;;;26.19;72.79;99249.00;3581158;40;20026;-71
2021/07/18 21:51:04;;;;;;;15.07;13.35;;;;;;;26.13;73.37;99249.66;3572731;40;20038;-72
2021/07/18 21:53:29;;;;;;;15.25;13.13;;;;;;;26.30;72.37;99245.28;3581924;40;20026;-73
2021/07/18 21:55:55;;;;;;;17.35;13.30;;;;;;;26.50;72.36;99254.44;3582418;40;20476;-70
2021/07/18 21:58:20;;;;;;;20.92;13.27;;;;;;;26.22;72.67;99247.88;3582237;40;20385;-72
2021/07/18 22:03:16;;;;;;;18.98;13.38;;;;;;;26.01;74.38;99237.84;3591006;40;20062;-71
2021/07/18 22:05:42;;;;;;;18.65;13.77;;;;;;;25.96;74.05;99241.91;3591568;40;20429;-72
2021/07/18 22:08:07;;;;;;;19.60;12.88;;;;;;;26.31;72.62;99232.09;3591935;40;20033;-72
2021/07/18 22:13:04;;;;;;;16.40;12.73;;;;;;;25.95;74.35;99230.66;3601453;39;20462;-74
2021/07/18 22:15:39;;;;;;;15.25;12.85;;;;;;;25.94;74.43;99233.44;3602158;39;20450;-70
2021/07/18 22:20:35;;;;;;;16.77;12.70;;;;;;;26.08;73.74;99241.50;3592268;40;20065;-69
2021/07/18 22:23:01;;;;;;;16.15;12.65;;;;;;;26.23;73.30;99246.88;3591674;40;20025;-72
2021/07/18 22:25:28;;;;;;;15.40;12.57;;;;;;;26.26;72.93;99246.59;3591048;40;20037;-69
2021/07/18 22:27:54;;;;;;;18.85;13.38;;;;;;;26.24;73.21;99245.94;3591233;40;20037;-70
2021/07/18 22:30:22;;;;;;;18.63;12.35;;;;;;;26.34;72.66;99250.03;3591332;40;20344;-69
2021/07/18 22:32:51;;;;;;;16.23;12.75;;;;;;;26.20;72.94;99245.44;3591732;40;20029;-72
2021/07/18 22:35:19;;;;;;;14.40;12.40;;;;;;;25.96;73.20;99247.13;3591640;40;20029;-71
2021/07/18 22:37:46;;;;;;;14.43;12.80;;;;;;;26.13;72.44;99254.03;3581971;40;20461;-71
2021/07/18 22:40:18;;;;;;;18.70;13.05;;;;;;;25.63;74.32;99244.38;3591224;40;20035;-72
2021/07/18 22:42:47;;;;;;;15.48;13.20;;;;;;;25.61;74.54;99233.31;3591114;40;20090;-72
2021/07/18 22:45:14;;;;;;;18.10;13.32;;;;;;;25.55;74.56;99228.72;3591312;40;20025;-69
2021/07/18 22:47:40;;;;;;;14.93;12.80;;;;;;;25.75;73.64;99219.69;3591500;40;20308;-71
2021/07/18 22:50:26;;;;;;;19.50;13.15;;;;;;;25.59;73.16;99222.25;3599728;40;20032;-71
2021/07/18 22:52:53;;;;;;;17.23;13.18;;;;;;;25.78;72.52;99232.44;3581635;40;20026;-70
2021/07/18 22:55:27;;;;;;;17.20;13.13;;;;;;;25.76;71.77;99234.38;3591174;40;20102;-69
2021/07/18 22:57:55;;;;;;;15.73;11.65;;;;;;;25.66;72.52;99227.66;3591507;40;20036;-70
2021/07/18 23:00:26;;;;;;;16.23;12.23;;;;;;;25.77;71.84;99228.16;3591054;40;20075;-69
2021/07/18 23:02:52;;;;;;;15.90;12.27;;;;;;;25.72;72.14;99214.00;3591003;40;20036;-70
2021/07/18 23:05:18;;;;;;;16.02;12.70;;;;;;;25.62;72.06;99219.34;3581916;40;20040;-71
2021/07/18 23:07:44;;;;;;;16.48;12.70;;;;;;;25.67;72.17;99224.88;3582542;40;20082;-72
2021/07/18 23:10:12;;;;;;;16.50;12.50;;;;;;;25.42;73.32;99222.31;3590571;40;20094;-70
2021/07/18 23:12:39;;;;;;;16.30;11.93;;;;;;;26.14;69.93;99225.22;3590344;40;20029;-71
2021/07/18 23:15:08;;;;;;;16.08;12.60;;;;;;;25.64;71.93;99226.97;3590580;40;20067;-69
2021/07/18 23:17:35;;;;;;;17.35;12.18;;;;;;;25.58;72.35;99212.81;3590138;40;20045;-74
2021/07/18 23:22:52;;;;;;;13.18;11.85;;;;;;;26.07;71.04;99224.22;3598833;40;20087;-70
2021/07/18 23:25:18;;;;;;;13.15;10.85;;;;;;;25.81;72.15;99233.09;3600394;40;20083;-69
2021/07/18 23:27:44;;;;;;;13.05;11.20;;;;;;;25.92;71.34;99240.59;3590619;40;20037;-72
2021/07/18 23:30:11;;;;;;;15.32;11.52;;;;;;;25.85;71.98;99232.59;3588746;40;20064;-71
2021/07/18 23:32:37;;;;;;;17.52;12.18;;;;;;;25.50;73.19;99230.19;3608355;40;20450;-69
2021/07/18 23:35:05;;;;;;;16.80;11.27;;;;;;;26.02;70.88;99233.47;3591875;40;20090;-69
2021/07/18 23:37:32;;;;;;;14.88;11.90;;;;;;;25.50;73.04;99227.56;3591417;40;20033;-69
2021/07/18 23:40:00;;;;;;;15.60;11.68;;;;;;;25.79;71.55;99236.66;3600811;40;20029;-71
2021/07/18 23:42:26;;;;;;;15.68;12.35;;;;;;;25.50;72.99;99231.00;3600443;40;20029;-70
2021/07/18 23:44:51;;;;;;;15.32;11.63;;;;;;;25.62;72.52;99219.34;3600584;40;20120;-70
2021/07/18 23:47:17;;;;;;;16.27;12.65;;;;;;;25.53;72.89;99224.69;3600733;40;20037;-69
2021/07/18 23:49:43;;;;;;;20.95;12.05;;;;;;;25.62;72.75;99219.34;3600983;40;20315;-72
2021/07/18 23:52:09;;;;;;;14.48;12.95;;;;;;;25.42;72.93;99220.53;3600610;40;20042;-71
2021/07/18 23:54:36;;;;;;;18.40;12.57;;;;;;;25.50;72.98;99215.38;3600664;40;20028;-72
2021/07/18 23:57:03;;;;;;;14.35;12.35;;;;;;;25.36;73.23;99213.31;3600321;40;20068;-70
2021/07/18 23:59:29;;;;;;;17.55;12.93;;;;;;;25.56;72.32;99221.75;3590904;40;20036;-72
